sensor_id;sensor_type;location;lat;lon;timestamp;P1;durP1;ratioP1;P2;durP2;ratioP2
25583;SDS011;13463;51.526;9.928;2024-02-26T00:00:23;11.32;;;5.90;;
25583;SDS011;13463;51.526;9.928;2024-02-26T00:02:50;10.85;;;6.55;;
25583;SDS011;13463;51.526;9.928;2024-02-26T00:05:17;11.40;;;6.75;;
25583;SDS011;13463;51.526;9.928;2024-02-26T00:07:43;10.35;;;6.30;;
25583;SDS011;13463;51.526;9.928;2024-02-26T00:10:11;10.05;;;6.63;;
25583;SDS011;13463;51.526;9.928;2024-02-26T00:12:37;11.02;;;6.97;;
25583;SDS011;13463;51.526;9.928;2024-02-26T00:15:09;12.98;;;7.60;;
25583;SDS011;13463;51.526;9.928;2024-02-26T00:17:36;13.52;;;8.65;;
25583;SDS011;13463;51.526;9.928;2024-02-26T00:20:04;13.57;;;8.50;;
25583;SDS011;13463;51.526;9.928;2024-02-26T00:22:35;12.55;;;7.97;;
25583;SDS011;13463;51.526;9.928;2024-02-26T00:25:02;13.60;;;8.38;;
25583;SDS011;13463;51.526;9.928;2024-02-26T00:27:30;17.25;;;8.32;;
25583;SDS011;13463;51.526;9.928;2024-02-26T00:29:56;14.50;;;8.77;;
25583;SDS011;13463;51.526;9.928;2024-02-26T00:32:23;14.15;;;8.40;;
25583;SDS011;13463;51.526;9.928;2024-02-26T00:34:50;18.77;;;9.20;;
25583;SDS011;13463;51.526;9.928;2024-02-26T00:37:17;12.73;;;8.40;;
25583;SDS011;13463;51.526;9.928;2024-02-26T00:39:43;13.63;;;7.85;;
25583;SDS011;13463;51.526;9.928;2024-02-26T00:42:11;12.35;;;8.25;;
25583;SDS011;13463;51.526;9.928;2024-02-26T00:44:37;13.90;;;9.20;;
25583;SDS011;13463;51.526;9.928;2024-02-26T00:47:04;13.35;;;7.53;;
25583;SDS011;13463;51.526;9.928;2024-02-26T00:49:31;11.73;;;8.07;;
25583;SDS011;13463;51.526;9.928;2024-02-26T00:51:57;11.23;;;7.40;;
25583;SDS011;13463;51.526;9.928;2024-02-26T00:54:24;16.35;;;8.45;;
25583;SDS011;13463;51.526;9.928;2024-02-26T00:56:51;12.15;;;7.90;;
25583;SDS011;13463;51.526;9.928;2024-02-26T00:59:17;14.05;;;8.00;;
25583;SDS011;13463;51.526;9.928;2024-02-26T01:01:44;13.43;;;7.47;;
25583;SDS011;13463;51.526;9.928;2024-02-26T01:04:10;13.90;;;7.70;;
25583;SDS011;13463;51.526;9.928;2024-02-26T01:06:38;11.95;;;7.80;;
25583;SDS011;13463;51.526;9.928;2024-02-26T01:09:05;11.43;;;8.45;;
25583;SDS011;13463;51.526;9.928;2024-02-26T01:11:32;14.75;;;9.38;;
25583;SDS011;13463;51.526;9.928;2024-02-26T01:13:59;14.40;;;7.88;;
25583;SDS011;13463;51.526;9.928;2024-02-26T01:16:25;12.25;;;8.10;;
25583;SDS011;13463;51.526;9.928;2024-02-26T01:18:52;15.10;;;8.05;;
25583;SDS011;13463;51.526;9.928;2024-02-26T01:21:18;14.75;;;7.95;;
25583;SDS011;13463;51.526;9.928;2024-02-26T01:23:45;16.40;;;9.77;;
25583;SDS011;13463;51.526;9.928;2024-02-26T01:26:12;17.10;;;9.82;;
25583;SDS011;13463;51.526;9.928;2024-02-26T01:28:38;14.20;;;8.38;;
25583;SDS011;13463;51.526;9.928;2024-02-26T01:31:05;13.80;;;8.57;;
25583;SDS011;13463;51.526;9.928;2024-02-26T01:33:34;15.20;;;8.90;;
25583;SDS011;13463;51.526;9.928;2024-02-26T01:36:00;15.30;;;10.35;;
25583;SDS011;13463;51.526;9.928;2024-02-26T01:38:27;15.95;;;8.68;;
25583;SDS011;13463;51.526;9.928;2024-02-26T01:40:54;14.88;;;9.32;;
25583;SDS011;13463;51.526;9.928;2024-02-26T01:43:21;13.45;;;9.07;;
25583;SDS011;13463;51.526;9.928;2024-02-26T01:45:47;12.77;;;8.70;;
25583;SDS011;13463;51.526;9.928;2024-02-26T01:48:14;12.05;;;8.05;;
25583;SDS011;13463;51.526;9.928;2024-02-26T01:50:41;10.38;;;7.70;;
25583;SDS011;13463;51.526;9.928;2024-02-26T01:53:08;10.75;;;7.50;;
25583;SDS011;13463;51.526;9.928;2024-02-26T01:55:36;12.38;;;8.05;;
25583;SDS011;13463;51.526;9.928;2024-02-26T01:58:03;11.73;;;8.48;;
25583;SDS011;13463;51.526;9.928;2024-02-26T02:00:30;13.63;;;8.60;;
25583;SDS011;13463;51.526;9.928;2024-02-26T02:02:57;12.93;;;9.00;;
25583;SDS011;13463;51.526;9.928;2024-02-26T02:05:24;14.60;;;8.15;;
25583;SDS011;13463;51.526;9.928;2024-02-26T02:07:52;12.20;;;8.32;;
25583;SDS011;13463;51.526;9.928;2024-02-26T02:10:19;12.77;;;7.65;;
25583;SDS011;13463;51.526;9.928;2024-02-26T02:12:49;12.98;;;8.93;;
25583;SDS011;13463;51.526;9.928;2024-02-26T02:15:16;11.95;;;7.65;;
25583;SDS011;13463;51.526;9.928;2024-02-26T02:17:43;11.93;;;7.70;;
25583;SDS011;13463;51.526;9.928;2024-02-26T02:20:17;13.63;;;8.70;;
25583;SDS011;13463;51.526;9.928;2024-02-26T02:22:45;11.82;;;8.27;;
25583;SDS011;13463;51.526;9.928;2024-02-26T02:25:12;13.15;;;8.75;;
25583;SDS011;13463;51.526;9.928;2024-02-26T02:27:39;10.18;;;7.25;;
25583;SDS011;13463;51.526;9.928;2024-02-26T02:30:06;12.45;;;7.95;;
25583;SDS011;13463;51.526;9.928;2024-02-26T02:32:35;12.02;;;7.82;;
25583;SDS011;13463;51.526;9.928;2024-02-26T02:35:06;16.00;;;8.02;;
25583;SDS011;13463;51.526;9.928;2024-02-26T02:37:33;10.90;;;7.05;;
25583;SDS011;13463;51.526;9.928;2024-02-26T02:39:59;12.25;;;8.15;;
25583;SDS011;13463;51.526;9.928;2024-02-26T02:42:26;10.25;;;7.43;;
25583;SDS011;13463;51.526;9.928;2024-02-26T02:44:53;11.55;;;7.63;;
25583;SDS011;13463;51.526;9.928;2024-02-26T02:47:19;18.58;;;8.85;;
25583;SDS011;13463;51.526;9.928;2024-02-26T02:49:46;10.63;;;7.05;;
25583;SDS011;13463;51.526;9.928;2024-02-26T02:52:12;10.25;;;6.80;;
25583;SDS011;13463;51.526;9.928;2024-02-26T02:54:39;12.73;;;7.20;;
25583;SDS011;13463;51.526;9.928;2024-02-26T02:57:08;16.00;;;8.50;;
25583;SDS011;13463;51.526;9.928;2024-02-26T02:59:35;13.32;;;7.57;;
25583;SDS011;13463;51.526;9.928;2024-02-26T03:02:03;12.90;;;8.15;;
25583;SDS011;13463;51.526;9.928;2024-02-26T03:04:30;11.85;;;7.95;;
25583;SDS011;13463;51.526;9.928;2024-02-26T03:06:56;12.75;;;8.50;;
25583;SDS011;13463;51.526;9.928;2024-02-26T03:09:24;9.50;;;7.20;;
25583;SDS011;13463;51.526;9.928;2024-02-26T03:11:51;10.45;;;7.70;;
25583;SDS011;13463;51.526;9.928;2024-02-26T03:14:17;11.10;;;7.32;;
25583;SDS011;13463;51.526;9.928;2024-02-26T03:16:44;10.60;;;7.20;;
25583;SDS011;13463;51.526;9.928;2024-02-26T03:19:10;11.48;;;8.13;;
25583;SDS011;13463;51.526;9.928;2024-02-26T03:21:37;17.10;;;8.02;;
25583;SDS011;13463;51.526;9.928;2024-02-26T03:24:04;10.73;;;7.95;;
25583;SDS011;13463;51.526;9.928;2024-02-26T03:26:31;16.27;;;8.57;;
25583;SDS011;13463;51.526;9.928;2024-02-26T03:28:57;16.13;;;9.25;;
25583;SDS011;13463;51.526;9.928;2024-02-26T03:31:24;17.98;;;10.68;;
25583;SDS011;13463;51.526;9.928;2024-02-26T03:33:50;11.70;;;7.78;;
25583;SDS011;13463;51.526;9.928;2024-02-26T03:36:17;12.57;;;8.05;;
25583;SDS011;13463;51.526;9.928;2024-02-26T03:38:44;16.42;;;6.85;;
25583;SDS011;13463;51.526;9.928;2024-02-26T03:41:11;9.23;;;6.68;;
25583;SDS011;13463;51.526;9.928;2024-02-26T03:43:37;9.50;;;5.93;;
25583;SDS011;13463;51.526;9.928;2024-02-26T03:46:07;9.13;;;6.20;;
25583;SDS011;13463;51.526;9.928;2024-02-26T03:48:33;9.02;;;6.10;;
25583;SDS011;13463;51.526;9.928;2024-02-26T03:51:00;9.40;;;6.38;;
25583;SDS011;13463;51.526;9.928;2024-02-26T03:53:27;6.78;;;4.95;;
25583;SDS011;13463;51.526;9.928;2024-02-26T03:55:54;6.75;;;5.10;;
25583;SDS011;13463;51.526;9.928;2024-02-26T03:58:21;7.70;;;6.13;;
25583;SDS011;13463;51.526;9.928;2024-02-26T04:00:48;6.95;;;5.50;;
25583;SDS011;13463;51.526;9.928;2024-02-26T04:03:14;9.10;;;5.88;;
25583;SDS011;13463;51.526;9.928;2024-02-26T04:05:41;9.30;;;5.65;;
25583;SDS011;13463;51.526;9.928;2024-02-26T04:08:07;10.52;;;5.38;;
25583;SDS011;13463;51.526;9.928;2024-02-26T04:10:34;6.57;;;5.20;;
25583;SDS011;13463;51.526;9.928;2024-02-26T04:13:07;8.10;;;5.93;;
25583;SDS011;13463;51.526;9.928;2024-02-26T04:15:34;10.93;;;6.07;;
25583;SDS011;13463;51.526;9.928;2024-02-26T04:18:01;8.10;;;5.70;;
25583;SDS011;13463;51.526;9.928;2024-02-26T04:20:29;9.27;;;6.88;;
25583;SDS011;13463;51.526;9.928;2024-02-26T04:22:56;9.00;;;6.55;;
25583;SDS011;13463;51.526;9.928;2024-02-26T04:25:22;8.57;;;6.72;;
25583;SDS011;13463;51.526;9.928;2024-02-26T04:27:49;9.75;;;7.30;;
25583;SDS011;13463;51.526;9.928;2024-02-26T04:30:15;8.93;;;6.25;;
25583;SDS011;13463;51.526;9.928;2024-02-26T04:32:43;8.63;;;6.88;;
25583;SDS011;13463;51.526;9.928;2024-02-26T04:35:10;9.77;;;7.25;;
25583;SDS011;13463;51.526;9.928;2024-02-26T04:37:37;11.00;;;7.40;;
25583;SDS011;13463;51.526;9.928;2024-02-26T04:40:04;11.05;;;7.18;;
25583;SDS011;13463;51.526;9.928;2024-02-26T04:42:31;12.93;;;6.05;;
25583;SDS011;13463;51.526;9.928;2024-02-26T04:44:58;13.80;;;7.50;;
25583;SDS011;13463;51.526;9.928;2024-02-26T04:47:24;15.52;;;7.32;;
25583;SDS011;13463;51.526;9.928;2024-02-26T04:49:51;9.05;;;6.72;;
25583;SDS011;13463;51.526;9.928;2024-02-26T04:52:18;11.25;;;6.50;;
25583;SDS011;13463;51.526;9.928;2024-02-26T04:54:45;9.63;;;6.85;;
25583;SDS011;13463;51.526;9.928;2024-02-26T04:57:12;10.93;;;7.10;;
25583;SDS011;13463;51.526;9.928;2024-02-26T04:59:39;9.23;;;6.80;;
25583;SDS011;13463;51.526;9.928;2024-02-26T05:02:07;7.90;;;5.95;;
25583;SDS011;13463;51.526;9.928;2024-02-26T05:04:34;13.23;;;6.75;;
25583;SDS011;13463;51.526;9.928;2024-02-26T05:07:01;14.30;;;7.22;;
25583;SDS011;13463;51.526;9.928;2024-02-26T05:09:28;9.82;;;6.20;;
25583;SDS011;13463;51.526;9.928;2024-02-26T05:11:54;10.40;;;5.57;;
25583;SDS011;13463;51.526;9.928;2024-02-26T05:14:21;10.20;;;6.55;;
25583;SDS011;13463;51.526;9.928;2024-02-26T05:16:47;8.73;;;5.78;;
25583;SDS011;13463;51.526;9.928;2024-02-26T05:19:14;10.30;;;6.97;;
25583;SDS011;13463;51.526;9.928;2024-02-26T05:21:41;8.98;;;6.20;;
25583;SDS011;13463;51.526;9.928;2024-02-26T05:24:10;9.30;;;5.13;;
25583;SDS011;13463;51.526;9.928;2024-02-26T05:26:37;10.85;;;6.55;;
25583;SDS011;13463;51.526;9.928;2024-02-26T05:29:04;10.38;;;6.35;;
25583;SDS011;13463;51.526;9.928;2024-02-26T05:31:30;11.30;;;6.18;;
25583;SDS011;13463;51.526;9.928;2024-02-26T05:33:57;10.07;;;6.28;;
25583;SDS011;13463;51.526;9.928;2024-02-26T05:36:23;9.50;;;6.60;;
25583;SDS011;13463;51.526;9.928;2024-02-26T05:38:51;10.13;;;6.47;;
25583;SDS011;13463;51.526;9.928;2024-02-26T05:41:18;10.80;;;6.25;;
25583;SDS011;13463;51.526;9.928;2024-02-26T05:43:49;11.10;;;6.75;;
25583;SDS011;13463;51.526;9.928;2024-02-26T05:46:17;8.75;;;6.35;;
25583;SDS011;13463;51.526;9.928;2024-02-26T05:48:44;9.20;;;6.60;;
25583;SDS011;13463;51.526;9.928;2024-02-26T05:51:13;11.20;;;7.57;;
25583;SDS011;13463;51.526;9.928;2024-02-26T05:53:40;9.82;;;6.80;;
25583;SDS011;13463;51.526;9.928;2024-02-26T05:56:07;11.93;;;7.07;;
25583;SDS011;13463;51.526;9.928;2024-02-26T05:58:34;12.60;;;7.10;;
25583;SDS011;13463;51.526;9.928;2024-02-26T06:01:00;7.05;;;5.50;;
25583;SDS011;13463;51.526;9.928;2024-02-26T06:03:27;11.52;;;6.45;;
25583;SDS011;13463;51.526;9.928;2024-02-26T06:05:53;11.60;;;6.20;;
25583;SDS011;13463;51.526;9.928;2024-02-26T06:08:20;9.75;;;6.38;;
25583;SDS011;13463;51.526;9.928;2024-02-26T06:10:47;7.43;;;5.38;;
25583;SDS011;13463;51.526;9.928;2024-02-26T06:13:13;9.45;;;6.30;;
25583;SDS011;13463;51.526;9.928;2024-02-26T06:15:40;9.05;;;5.97;;
25583;SDS011;13463;51.526;9.928;2024-02-26T06:18:06;8.40;;;6.07;;
25583;SDS011;13463;51.526;9.928;2024-02-26T06:20:33;8.63;;;5.90;;
25583;SDS011;13463;51.526;9.928;2024-02-26T06:22:59;8.88;;;6.07;;
25583;SDS011;13463;51.526;9.928;2024-02-26T06:25:26;7.95;;;5.95;;
25583;SDS011;13463;51.526;9.928;2024-02-26T06:27:53;10.10;;;6.80;;
25583;SDS011;13463;51.526;9.928;2024-02-26T06:30:19;9.10;;;6.85;;
25583;SDS011;13463;51.526;9.928;2024-02-26T06:32:46;13.30;;;7.78;;
25583;SDS011;13463;51.526;9.928;2024-02-26T06:35:13;12.50;;;8.48;;
25583;SDS011;13463;51.526;9.928;2024-02-26T06:37:39;15.52;;;9.20;;
25583;SDS011;13463;51.526;9.928;2024-02-26T06:40:06;13.23;;;8.55;;
25583;SDS011;13463;51.526;9.928;2024-02-26T06:42:33;10.20;;;6.80;;
25583;SDS011;13463;51.526;9.928;2024-02-26T06:45:01;11.60;;;7.40;;
25583;SDS011;13463;51.526;9.928;2024-02-26T06:47:28;16.65;;;9.40;;
25583;SDS011;13463;51.526;9.928;2024-02-26T06:49:54;13.98;;;8.85;;
25583;SDS011;13463;51.526;9.928;2024-02-26T06:54:52;12.27;;;8.60;;
25583;SDS011;13463;51.526;9.928;2024-02-26T06:57:19;13.00;;;8.80;;
25583;SDS011;13463;51.526;9.928;2024-02-26T06:59:47;17.58;;;10.88;;
25583;SDS011;13463;51.526;9.928;2024-02-26T07:02:14;20.98;;;12.88;;
25583;SDS011;13463;51.526;9.928;2024-02-26T07:04:42;19.15;;;11.48;;
25583;SDS011;13463;51.526;9.928;2024-02-26T07:07:08;16.70;;;10.15;;
25583;SDS011;13463;51.526;9.928;2024-02-26T07:09:36;20.30;;;11.57;;
25583;SDS011;13463;51.526;9.928;2024-02-26T07:12:02;15.48;;;10.75;;
25583;SDS011;13463;51.526;9.928;2024-02-26T07:14:29;19.95;;;9.75;;
25583;SDS011;13463;51.526;9.928;2024-02-26T07:16:56;14.75;;;9.43;;
25583;SDS011;13463;51.526;9.928;2024-02-26T07:19:24;14.55;;;8.40;;
25583;SDS011;13463;51.526;9.928;2024-02-26T07:21:51;21.23;;;11.88;;
25583;SDS011;13463;51.526;9.928;2024-02-26T07:24:19;16.52;;;11.18;;
25583;SDS011;13463;51.526;9.928;2024-02-26T07:26:46;15.75;;;9.77;;
25583;SDS011;13463;51.526;9.928;2024-02-26T07:29:13;18.17;;;9.73;;
25583;SDS011;13463;51.526;9.928;2024-02-26T07:31:39;12.18;;;9.13;;
25583;SDS011;13463;51.526;9.928;2024-02-26T07:34:06;17.20;;;9.07;;
25583;SDS011;13463;51.526;9.928;2024-02-26T07:36:33;14.85;;;8.60;;
25583;SDS011;13463;51.526;9.928;2024-02-26T07:38:59;11.93;;;8.23;;
25583;SDS011;13463;51.526;9.928;2024-02-26T07:41:27;14.13;;;8.60;;
25583;SDS011;13463;51.526;9.928;2024-02-26T07:43:54;12.32;;;8.52;;
25583;SDS011;13463;51.526;9.928;2024-02-26T07:46:20;15.00;;;8.98;;
25583;SDS011;13463;51.526;9.928;2024-02-26T07:48:47;14.40;;;9.43;;
25583;SDS011;13463;51.526;9.928;2024-02-26T07:51:14;16.20;;;9.55;;
25583;SDS011;13463;51.526;9.928;2024-02-26T07:53:41;19.13;;;9.88;;
25583;SDS011;13463;51.526;9.928;2024-02-26T07:56:08;16.67;;;8.93;;
25583;SDS011;13463;51.526;9.928;2024-02-26T07:58:35;13.10;;;8.00;;
25583;SDS011;13463;51.526;9.928;2024-02-26T08:01:02;8.80;;;6.43;;
25583;SDS011;13463;51.526;9.928;2024-02-26T08:03:29;8.82;;;5.55;;
25583;SDS011;13463;51.526;9.928;2024-02-26T08:05:55;8.20;;;4.57;;
25583;SDS011;13463;51.526;9.928;2024-02-26T08:08:22;7.72;;;4.57;;
25583;SDS011;13463;51.526;9.928;2024-02-26T08:10:49;7.25;;;3.83;;
25583;SDS011;13463;51.526;9.928;2024-02-26T08:13:16;5.22;;;3.35;;
25583;SDS011;13463;51.526;9.928;2024-02-26T08:15:42;8.82;;;4.72;;
25583;SDS011;13463;51.526;9.928;2024-02-26T08:18:09;5.30;;;4.05;;
25583;SDS011;13463;51.526;9.928;2024-02-26T08:20:36;7.63;;;4.15;;
25583;SDS011;13463;51.526;9.928;2024-02-26T08:23:03;8.57;;;4.60;;
25583;SDS011;13463;51.526;9.928;2024-02-26T08:25:30;6.68;;;4.40;;
25583;SDS011;13463;51.526;9.928;2024-02-26T08:27:57;6.10;;;3.75;;
25583;SDS011;13463;51.526;9.928;2024-02-26T08:30:24;7.65;;;3.70;;
25583;SDS011;13463;51.526;9.928;2024-02-26T08:32:52;7.07;;;4.32;;
25583;SDS011;13463;51.526;9.928;2024-02-26T08:35:19;5.15;;;4.00;;
25583;SDS011;13463;51.526;9.928;2024-02-26T08:37:46;7.18;;;4.90;;
25583;SDS011;13463;51.526;9.928;2024-02-26T08:40:14;8.75;;;3.88;;
25583;SDS011;13463;51.526;9.928;2024-02-26T08:42:41;7.13;;;3.83;;
25583;SDS011;13463;51.526;9.928;2024-02-26T08:45:08;8.07;;;4.25;;
25583;SDS011;13463;51.526;9.928;2024-02-26T08:47:35;9.52;;;4.72;;
25583;SDS011;13463;51.526;9.928;2024-02-26T08:50:02;6.57;;;4.18;;
25583;SDS011;13463;51.526;9.928;2024-02-26T08:52:29;8.10;;;4.20;;
25583;SDS011;13463;51.526;9.928;2024-02-26T08:54:56;8.80;;;4.57;;
25583;SDS011;13463;51.526;9.928;2024-02-26T08:57:24;6.93;;;5.15;;
25583;SDS011;13463;51.526;9.928;2024-02-26T09:02:20;9.77;;;5.85;;
25583;SDS011;13463;51.526;9.928;2024-02-26T09:04:47;7.65;;;4.78;;
25583;SDS011;13463;51.526;9.928;2024-02-26T09:07:13;6.70;;;4.78;;
25583;SDS011;13463;51.526;9.928;2024-02-26T09:09:40;9.27;;;5.93;;
25583;SDS011;13463;51.526;9.928;2024-02-26T09:12:07;9.35;;;6.20;;
25583;SDS011;13463;51.526;9.928;2024-02-26T09:14:34;9.48;;;6.28;;
25583;SDS011;13463;51.526;9.928;2024-02-26T09:17:00;8.95;;;6.70;;
25583;SDS011;13463;51.526;9.928;2024-02-26T09:19:27;8.85;;;6.15;;
25583;SDS011;13463;51.526;9.928;2024-02-26T09:21:56;9.20;;;6.60;;
25583;SDS011;13463;51.526;9.928;2024-02-26T09:24:24;8.90;;;6.75;;
25583;SDS011;13463;51.526;9.928;2024-02-26T09:27:11;10.57;;;8.15;;
25583;SDS011;13463;51.526;9.928;2024-02-26T09:29:38;12.70;;;8.45;;
25583;SDS011;13463;51.526;9.928;2024-02-26T09:32:04;12.20;;;8.27;;
25583;SDS011;13463;51.526;9.928;2024-02-26T09:34:31;11.88;;;8.65;;
25583;SDS011;13463;51.526;9.928;2024-02-26T09:36:58;13.23;;;8.63;;
25583;SDS011;13463;51.526;9.928;2024-02-26T09:39:38;12.05;;;8.43;;
25583;SDS011;13463;51.526;9.928;2024-02-26T09:42:05;15.25;;;8.13;;
25583;SDS011;13463;51.526;9.928;2024-02-26T09:44:36;14.70;;;8.18;;
25583;SDS011;13463;51.526;9.928;2024-02-26T09:47:05;11.88;;;8.80;;
25583;SDS011;13463;51.526;9.928;2024-02-26T09:49:34;11.73;;;8.60;;
25583;SDS011;13463;51.526;9.928;2024-02-26T09:52:03;13.23;;;7.95;;
25583;SDS011;13463;51.526;9.928;2024-02-26T09:54:31;13.45;;;8.10;;
25583;SDS011;13463;51.526;9.928;2024-02-26T09:56:59;13.70;;;8.48;;
25583;SDS011;13463;51.526;9.928;2024-02-26T09:59:33;11.40;;;8.40;;
25583;SDS011;13463;51.526;9.928;2024-02-26T10:02:11;15.38;;;8.80;;
25583;SDS011;13463;51.526;9.928;2024-02-26T10:04:39;13.55;;;8.90;;
25583;SDS011;13463;51.526;9.928;2024-02-26T10:07:10;14.43;;;8.95;;
25583;SDS011;13463;51.526;9.928;2024-02-26T10:09:38;13.25;;;8.65;;
25583;SDS011;13463;51.526;9.928;2024-02-26T10:12:06;12.80;;;9.15;;
25583;SDS011;13463;51.526;9.928;2024-02-26T10:14:36;10.43;;;8.35;;
25583;SDS011;13463;51.526;9.928;2024-02-26T10:17:03;11.85;;;8.15;;
25583;SDS011;13463;51.526;9.928;2024-02-26T10:19:35;11.05;;;7.97;;
25583;SDS011;13463;51.526;9.928;2024-02-26T10:24:32;12.73;;;7.88;;
25583;SDS011;13463;51.526;9.928;2024-02-26T10:27:01;11.63;;;7.00;;
25583;SDS011;13463;51.526;9.928;2024-02-26T10:29:28;12.65;;;7.20;;
25583;SDS011;13463;51.526;9.928;2024-02-26T10:31:55;10.43;;;7.68;;
25583;SDS011;13463;51.526;9.928;2024-02-26T10:34:22;12.30;;;7.60;;
25583;SDS011;13463;51.526;9.928;2024-02-26T10:36:49;10.07;;;7.60;;
25583;SDS011;13463;51.526;9.928;2024-02-26T10:39:20;13.93;;;7.57;;
25583;SDS011;13463;51.526;9.928;2024-02-26T10:41:48;10.93;;;7.78;;
25583;SDS011;13463;51.526;9.928;2024-02-26T10:44:15;15.40;;;8.15;;
25583;SDS011;13463;51.526;9.928;2024-02-26T10:46:45;13.00;;;7.87;;
25583;SDS011;13463;51.526;9.928;2024-02-26T10:49:15;9.98;;;6.75;;
25583;SDS011;13463;51.526;9.928;2024-02-26T10:51:55;10.80;;;7.70;;
25583;SDS011;13463;51.526;9.928;2024-02-26T10:54:26;10.70;;;7.55;;
25583;SDS011;13463;51.526;9.928;2024-02-26T10:56:57;12.80;;;7.00;;
25583;SDS011;13463;51.526;9.928;2024-02-26T10:59:26;10.48;;;6.95;;
25583;SDS011;13463;51.526;9.928;2024-02-26T11:01:52;12.95;;;7.43;;
25583;SDS011;13463;51.526;9.928;2024-02-26T11:04:21;12.82;;;7.25;;
25583;SDS011;13463;51.526;9.928;2024-02-26T11:06:54;8.60;;;6.55;;
25583;SDS011;13463;51.526;9.928;2024-02-26T11:09:23;12.18;;;7.20;;
25583;SDS011;13463;51.526;9.928;2024-02-26T11:11:51;9.30;;;7.05;;
25583;SDS011;13463;51.526;9.928;2024-02-26T11:14:21;9.65;;;6.18;;
25583;SDS011;13463;51.526;9.928;2024-02-26T11:16:52;7.57;;;6.68;;
25583;SDS011;13463;51.526;9.928;2024-02-26T11:19:22;8.50;;;6.70;;
25583;SDS011;13463;51.526;9.928;2024-02-26T11:21:56;12.48;;;7.00;;
25583;SDS011;13463;51.526;9.928;2024-02-26T11:24:28;5.82;;;5.10;;
25583;SDS011;13463;51.526;9.928;2024-02-26T11:26:55;8.63;;;6.45;;
25583;SDS011;13463;51.526;9.928;2024-02-26T11:29:32;10.05;;;6.18;;
25583;SDS011;13463;51.526;9.928;2024-02-26T11:32:05;8.30;;;5.63;;
25583;SDS011;13463;51.526;9.928;2024-02-26T11:34:32;10.10;;;5.93;;
25583;SDS011;13463;51.526;9.928;2024-02-26T11:37:08;6.68;;;5.35;;
25583;SDS011;13463;51.526;9.928;2024-02-26T11:39:37;10.48;;;5.75;;
25583;SDS011;13463;51.526;9.928;2024-02-26T11:42:08;7.22;;;5.78;;
25583;SDS011;13463;51.526;9.928;2024-02-26T11:47:12;12.60;;;5.75;;
25583;SDS011;13463;51.526;9.928;2024-02-26T11:49:40;9.98;;;5.38;;
25583;SDS011;13463;51.526;9.928;2024-02-26T11:52:08;7.93;;;5.80;;
25583;SDS011;13463;51.526;9.928;2024-02-26T11:57:38;7.67;;;5.60;;
25583;SDS011;13463;51.526;9.928;2024-02-26T12:02:44;7.63;;;5.15;;
25583;SDS011;13463;51.526;9.928;2024-02-26T12:05:24;6.68;;;5.85;;
25583;SDS011;13463;51.526;9.928;2024-02-26T12:10:37;7.40;;;5.75;;
25583;SDS011;13463;51.526;9.928;2024-02-26T12:13:13;8.52;;;5.43;;
25583;SDS011;13463;51.526;9.928;2024-02-26T12:16:07;7.05;;;5.03;;
25583;SDS011;13463;51.526;9.928;2024-02-26T12:18:32;10.98;;;5.30;;
25583;SDS011;13463;51.526;9.928;2024-02-26T12:21:01;11.27;;;5.53;;
25583;SDS011;13463;51.526;9.928;2024-02-26T12:23:29;8.93;;;5.70;;
25583;SDS011;13463;51.526;9.928;2024-02-26T12:25:59;8.30;;;5.80;;
25583;SDS011;13463;51.526;9.928;2024-02-26T12:28:30;8.10;;;5.72;;
25583;SDS011;13463;51.526;9.928;2024-02-26T12:30:57;9.40;;;5.00;;
25583;SDS011;13463;51.526;9.928;2024-02-26T12:33:26;9.33;;;4.90;;
25583;SDS011;13463;51.526;9.928;2024-02-26T12:35:54;7.53;;;4.13;;
25583;SDS011;13463;51.526;9.928;2024-02-26T12:38:21;7.32;;;5.05;;
25583;SDS011;13463;51.526;9.928;2024-02-26T12:40:48;9.85;;;5.50;;
25583;SDS011;13463;51.526;9.928;2024-02-26T12:43:15;5.90;;;4.38;;
25583;SDS011;13463;51.526;9.928;2024-02-26T12:45:42;6.60;;;4.53;;
25583;SDS011;13463;51.526;9.928;2024-02-26T12:48:14;14.15;;;4.85;;
25583;SDS011;13463;51.526;9.928;2024-02-26T12:50:45;8.57;;;5.82;;
25583;SDS011;13463;51.526;9.928;2024-02-26T12:53:14;7.15;;;4.68;;
25583;SDS011;13463;51.526;9.928;2024-02-26T12:55:41;10.68;;;5.38;;
25583;SDS011;13463;51.526;9.928;2024-02-26T12:58:09;7.95;;;4.80;;
25583;SDS011;13463;51.526;9.928;2024-02-26T13:00:36;7.28;;;5.30;;
25583;SDS011;13463;51.526;9.928;2024-02-26T13:03:03;6.80;;;4.75;;
25583;SDS011;13463;51.526;9.928;2024-02-26T13:05:30;6.65;;;4.82;;
25583;SDS011;13463;51.526;9.928;2024-02-26T13:07:57;6.97;;;5.00;;
25583;SDS011;13463;51.526;9.928;2024-02-26T13:10:24;6.75;;;5.32;;
25583;SDS011;13463;51.526;9.928;2024-02-26T13:12:51;8.73;;;4.75;;
25583;SDS011;13463;51.526;9.928;2024-02-26T13:15:19;8.57;;;4.57;;
25583;SDS011;13463;51.526;9.928;2024-02-26T13:17:48;13.07;;;5.05;;
25583;SDS011;13463;51.526;9.928;2024-02-26T13:20:30;8.65;;;5.47;;
25583;SDS011;13463;51.526;9.928;2024-02-26T13:23:02;8.88;;;4.78;;
25583;SDS011;13463;51.526;9.928;2024-02-26T13:25:33;9.07;;;4.70;;
25583;SDS011;13463;51.526;9.928;2024-02-26T13:28:08;7.65;;;5.25;;
25583;SDS011;13463;51.526;9.928;2024-02-26T13:30:36;10.00;;;5.10;;
25583;SDS011;13463;51.526;9.928;2024-02-26T13:33:12;12.25;;;5.70;;
25583;SDS011;13463;51.526;9.928;2024-02-26T13:35:41;7.95;;;4.88;;
25583;SDS011;13463;51.526;9.928;2024-02-26T13:38:07;5.57;;;4.50;;
25583;SDS011;13463;51.526;9.928;2024-02-26T13:40:34;10.07;;;5.07;;
25583;SDS011;13463;51.526;9.928;2024-02-26T13:43:03;8.80;;;4.22;;
25583;SDS011;13463;51.526;9.928;2024-02-26T13:45:30;7.97;;;4.80;;
25583;SDS011;13463;51.526;9.928;2024-02-26T13:48:01;7.25;;;4.90;;
25583;SDS011;13463;51.526;9.928;2024-02-26T13:50:29;10.02;;;4.75;;
25583;SDS011;13463;51.526;9.928;2024-02-26T13:52:56;10.93;;;6.45;;
25583;SDS011;13463;51.526;9.928;2024-02-26T13:55:27;8.73;;;4.65;;
25583;SDS011;13463;51.526;9.928;2024-02-26T13:57:58;9.00;;;4.93;;
25583;SDS011;13463;51.526;9.928;2024-02-26T14:00:28;9.52;;;5.13;;
25583;SDS011;13463;51.526;9.928;2024-02-26T14:02:58;7.65;;;5.40;;
25583;SDS011;13463;51.526;9.928;2024-02-26T14:05:28;11.90;;;4.95;;
25583;SDS011;13463;51.526;9.928;2024-02-26T14:07:56;6.55;;;4.57;;
25583;SDS011;13463;51.526;9.928;2024-02-26T14:10:24;6.72;;;4.13;;
25583;SDS011;13463;51.526;9.928;2024-02-26T14:12:52;7.00;;;5.25;;
25583;SDS011;13463;51.526;9.928;2024-02-26T14:15:18;8.85;;;5.13;;
25583;SDS011;13463;51.526;9.928;2024-02-26T14:17:45;7.72;;;5.28;;
25583;SDS011;13463;51.526;9.928;2024-02-26T14:20:12;7.68;;;4.68;;
25583;SDS011;13463;51.526;9.928;2024-02-26T14:22:39;5.78;;;4.78;;
25583;SDS011;13463;51.526;9.928;2024-02-26T14:25:06;7.25;;;4.60;;
25583;SDS011;13463;51.526;9.928;2024-02-26T14:27:35;9.68;;;5.20;;
25583;SDS011;13463;51.526;9.928;2024-02-26T14:30:02;6.80;;;5.28;;
25583;SDS011;13463;51.526;9.928;2024-02-26T14:32:29;7.65;;;5.10;;
25583;SDS011;13463;51.526;9.928;2024-02-26T14:34:57;7.60;;;5.38;;
25583;SDS011;13463;51.526;9.928;2024-02-26T14:37:24;6.57;;;4.72;;
25583;SDS011;13463;51.526;9.928;2024-02-26T14:39:50;9.85;;;4.97;;
25583;SDS011;13463;51.526;9.928;2024-02-26T14:42:18;9.82;;;4.75;;
25583;SDS011;13463;51.526;9.928;2024-02-26T14:44:45;10.57;;;5.25;;
25583;SDS011;13463;51.526;9.928;2024-02-26T14:47:14;6.85;;;5.00;;
25583;SDS011;13463;51.526;9.928;2024-02-26T14:49:40;7.03;;;4.50;;
25583;SDS011;13463;51.526;9.928;2024-02-26T14:52:08;6.45;;;4.70;;
25583;SDS011;13463;51.526;9.928;2024-02-26T14:54:34;8.20;;;4.60;;
25583;SDS011;13463;51.526;9.928;2024-02-26T14:57:05;7.00;;;4.60;;
25583;SDS011;13463;51.526;9.928;2024-02-26T14:59:33;6.00;;;4.45;;
25583;SDS011;13463;51.526;9.928;2024-02-26T15:02:00;8.88;;;5.88;;